Bristol, Maine
Current Conditions -  °F | °C
As of 9:53 PM on Friday 19 Dec 2014 (Local Time) from KIWI Reporting Station
Clear Clear  
Wind Chill: 26°   Ceiling: Unl
Heat Index: 26°   Visibility: 10mi
Dew Point: 20°   Wind: 0mph
Humidity: 78%   Direction: NA
Pressure: 30.13"   Gusts: NA
Location:  43.96°N, 69.51°W
Report Text: KIWI 200253Z AUTO 00000KT 10SM CLR M03/M07 A3013 RMK AO2 SLP204 T10331067 51024
Loading
Personal Weather Stations






























Interactive Weather Map New forecast layout! Learn more

10-Day Weather Forecast

Advertisements
Track Severe Weather on mobile